sensor_id;sensor_type;location;lat;lon;timestamp;pressure;altitude;pressure_sealevel;temperature;humidity
17764;BME280;22245;52.832;13.816;2023-04-15T00:02:50;100442.59;;;9.17;89.39
17764;BME280;22245;52.832;13.816;2023-04-15T00:06:12;100442.84;;;9.14;90.06
17764;BME280;22245;52.832;13.816;2023-04-15T00:09:35;100441.31;;;9.11;90.22
17764;BME280;22245;52.832;13.816;2023-04-15T00:12:57;100439.47;;;9.12;90.71
17764;BME280;22245;52.832;13.816;2023-04-15T00:16:19;100428.03;;;9.11;90.69
17764;BME280;22245;52.832;13.816;2023-04-15T00:19:40;100436.09;;;9.10;90.86
17764;BME280;22245;52.832;13.816;2023-04-15T00:23:04;100434.41;;;9.09;90.57
17764;BME280;22245;52.832;13.816;2023-04-15T00:26:28;100435.28;;;9.09;91.02
17764;BME280;22245;52.832;13.816;2023-04-15T00:29:49;100430.91;;;9.08;90.72
17764;BME280;22245;52.832;13.816;2023-04-15T00:33:12;100432.63;;;9.09;90.58
17764;BME280;22245;52.832;13.816;2023-04-15T00:36:33;100433.56;;;9.08;90.72
17764;BME280;22245;52.832;13.816;2023-04-15T00:39:56;100434.53;;;9.07;90.46
17764;BME280;22245;52.832;13.816;2023-04-15T00:43:19;100432.75;;;9.08;90.62
17764;BME280;22245;52.832;13.816;2023-04-15T00:46:41;100438.88;;;9.08;90.51
17764;BME280;22245;52.832;13.816;2023-04-15T00:50:05;100425.75;;;9.07;90.67
17764;BME280;22245;52.832;13.816;2023-04-15T00:53:27;100428.25;;;9.08;90.52
17764;BME280;22245;52.832;13.816;2023-04-15T00:56:49;100422.13;;;9.08;90.38
17764;BME280;22245;52.832;13.816;2023-04-15T01:00:14;100428.25;;;9.08;90.54
17764;BME280;22245;52.832;13.816;2023-04-15T01:03:36;100415.72;;;9.10;90.54
17764;BME280;22245;52.832;13.816;2023-04-15T01:06:58;100420.06;;;9.11;90.32
17764;BME280;22245;52.832;13.816;2023-04-15T01:10:20;100416.41;;;9.12;90.57
17764;BME280;22245;52.832;13.816;2023-04-15T01:13:42;100420.75;;;9.14;90.47
17764;BME280;22245;52.832;13.816;2023-04-15T01:17:05;100416.16;;;9.16;90.28
17764;BME280;22245;52.832;13.816;2023-04-15T01:20:28;100416.00;;;9.17;90.20
17764;BME280;22245;52.832;13.816;2023-04-15T01:23:49;100419.53;;;9.18;90.15
17764;BME280;22245;52.832;13.816;2023-04-15T01:27:15;100415.91;;;9.19;90.52
17764;BME280;22245;52.832;13.816;2023-04-15T01:30:37;100416.88;;;9.18;90.56
17764;BME280;22245;52.832;13.816;2023-04-15T01:33:59;100410.69;;;9.17;90.58
17764;BME280;22245;52.832;13.816;2023-04-15T01:37:21;100405.53;;;9.16;90.48
17764;BME280;22245;52.832;13.816;2023-04-15T01:40:43;100401.91;;;9.17;90.50
17764;BME280;22245;52.832;13.816;2023-04-15T01:44:07;100406.25;;;9.18;90.78
17764;BME280;22245;52.832;13.816;2023-04-15T01:47:29;100402.72;;;9.17;90.89
17764;BME280;22245;52.832;13.816;2023-04-15T01:50:52;100404.31;;;9.20;90.92
17764;BME280;22245;52.832;13.816;2023-04-15T01:54:13;100405.13;;;9.20;90.55
17764;BME280;22245;52.832;13.816;2023-04-15T01:57:35;100409.34;;;9.23;90.47
17764;BME280;22245;52.832;13.816;2023-04-15T02:01:00;100395.19;;;9.22;90.53
17764;BME280;22245;52.832;13.816;2023-04-15T02:04:24;100398.72;;;9.23;90.14
17764;BME280;22245;52.832;13.816;2023-04-15T02:07:47;100398.72;;;9.23;90.27
17764;BME280;22245;52.832;13.816;2023-04-15T02:11:09;100402.09;;;9.25;90.56
17764;BME280;22245;52.832;13.816;2023-04-15T02:14:31;100402.09;;;9.25;90.64
17764;BME280;22245;52.832;13.816;2023-04-15T02:17:54;100399.28;;;9.26;90.94
17764;BME280;22245;52.832;13.816;2023-04-15T02:21:16;100398.47;;;9.26;90.73
17764;BME280;22245;52.832;13.816;2023-04-15T02:24:38;100401.81;;;9.28;90.94
17764;BME280;22245;52.832;13.816;2023-04-15T02:28:03;100401.72;;;9.30;90.32
17764;BME280;22245;52.832;13.816;2023-04-15T02:31:25;100399.88;;;9.30;90.47
17764;BME280;22245;52.832;13.816;2023-04-15T02:34:49;100395.53;;;9.29;90.57
17764;BME280;22245;52.832;13.816;2023-04-15T02:38:11;100400.47;;;9.34;90.71
17764;BME280;22245;52.832;13.816;2023-04-15T02:41:33;100398.78;;;9.33;90.73
17764;BME280;22245;52.832;13.816;2023-04-15T02:44:56;100400.47;;;9.34;90.78
17764;BME280;22245;52.832;13.816;2023-04-15T02:48:23;100401.28;;;9.34;90.60
17764;BME280;22245;52.832;13.816;2023-04-15T02:51:46;100409.97;;;9.36;90.45
17764;BME280;22245;52.832;13.816;2023-04-15T02:55:08;100407.19;;;9.38;90.37
17764;BME280;22245;52.832;13.816;2023-04-15T02:58:30;100408.72;;;9.40;90.44
17764;BME280;22245;52.832;13.816;2023-04-15T03:01:52;100401.63;;;9.41;90.21
17764;BME280;22245;52.832;13.816;2023-04-15T03:05:15;100417.41;;;9.43;90.23
17764;BME280;22245;52.832;13.816;2023-04-15T03:08:43;100406.78;;;9.43;90.13
17764;BME280;22245;52.832;13.816;2023-04-15T03:12:05;100417.16;;;9.46;90.28
17764;BME280;22245;52.832;13.816;2023-04-15T03:15:27;100412.56;;;9.48;90.04
17764;BME280;22245;52.832;13.816;2023-04-15T03:18:49;100416.91;;;9.49;90.13
17764;BME280;22245;52.832;13.816;2023-04-15T03:22:13;100411.44;;;9.50;90.06
17764;BME280;22245;52.832;13.816;2023-04-15T03:25:35;100411.44;;;9.50;89.94
17764;BME280;22245;52.832;13.816;2023-04-15T03:28:59;100409.66;;;9.51;90.03
17764;BME280;22245;52.832;13.816;2023-04-15T03:32:21;100413.00;;;9.53;89.85
17764;BME280;22245;52.832;13.816;2023-04-15T03:35:43;100412.88;;;9.54;89.52
17764;BME280;22245;52.832;13.816;2023-04-15T03:39:05;100405.88;;;9.53;89.62
17764;BME280;22245;52.832;13.816;2023-04-15T03:42:28;100412.03;;;9.54;89.81
17764;BME280;22245;52.832;13.816;2023-04-15T03:45:50;100414.69;;;9.54;89.60
17764;BME280;22245;52.832;13.816;2023-04-15T03:49:13;100412.75;;;9.56;89.47
17764;BME280;22245;52.832;13.816;2023-04-15T03:52:34;100408.25;;;9.56;89.49
17764;BME280;22245;52.832;13.816;2023-04-15T03:55:57;100409.94;;;9.58;89.41
17764;BME280;22245;52.832;13.816;2023-04-15T03:59:20;100409.94;;;9.58;89.48
17764;BME280;22245;52.832;13.816;2023-04-15T04:02:41;100410.66;;;9.60;89.08
17764;BME280;22245;52.832;13.816;2023-04-15T04:06:05;100416.66;;;9.62;89.15
17764;BME280;22245;52.832;13.816;2023-04-15T04:09:27;100414.72;;;9.64;89.15
17764;BME280;22245;52.832;13.816;2023-04-15T04:12:48;100421.88;;;9.63;88.77
17764;BME280;22245;52.832;13.816;2023-04-15T04:16:11;100429.69;;;9.65;89.10
17764;BME280;22245;52.832;13.816;2023-04-15T04:19:33;100432.25;;;9.66;89.23
17764;BME280;22245;52.832;13.816;2023-04-15T04:22:55;100432.81;;;9.70;88.66
17764;BME280;22245;52.832;13.816;2023-04-15T04:26:16;100433.66;;;9.70;88.64
17764;BME280;22245;52.832;13.816;2023-04-15T04:29:39;100441.50;;;9.72;88.49
17764;BME280;22245;52.832;13.816;2023-04-15T04:33:02;100440.38;;;9.75;88.46
17764;BME280;22245;52.832;13.816;2023-04-15T04:36:24;100439.28;;;9.77;88.15
17764;BME280;22245;52.832;13.816;2023-04-15T04:39:47;100435.50;;;9.80;87.84
17764;BME280;22245;52.832;13.816;2023-04-15T04:43:09;100436.22;;;9.82;87.57
17764;BME280;22245;52.832;13.816;2023-04-15T04:46:30;100444.91;;;9.84;87.41
17764;BME280;22245;52.832;13.816;2023-04-15T04:49:54;100442.25;;;9.84;87.52
17764;BME280;22245;52.832;13.816;2023-04-15T04:53:15;100445.75;;;9.84;87.21
17764;BME280;22245;52.832;13.816;2023-04-15T04:56:37;100450.22;;;9.84;87.13
17764;BME280;22245;52.832;13.816;2023-04-15T04:59:59;100460.16;;;9.82;87.43
17764;BME280;22245;52.832;13.816;2023-04-15T05:03:21;100457.50;;;9.82;87.51
17764;BME280;22245;52.832;13.816;2023-04-15T05:06:44;100462.56;;;9.85;87.01
17764;BME280;22245;52.832;13.816;2023-04-15T05:10:08;100456.41;;;9.84;86.94
17764;BME280;22245;52.832;13.816;2023-04-15T05:13:29;100460.75;;;9.85;87.00
17764;BME280;22245;52.832;13.816;2023-04-15T05:16:51;100467.75;;;9.87;87.07
17764;BME280;22245;52.832;13.816;2023-04-15T05:20:13;100465.94;;;9.87;86.76
17764;BME280;22245;52.832;13.816;2023-04-15T05:23:36;100464.81;;;9.90;86.73
17764;BME280;22245;52.832;13.816;2023-04-15T05:26:57;100466.50;;;9.91;86.60
17764;BME280;22245;52.832;13.816;2023-04-15T05:30:20;100474.22;;;9.94;86.53
17764;BME280;22245;52.832;13.816;2023-04-15T05:33:43;100468.75;;;9.95;86.53
17764;BME280;22245;52.832;13.816;2023-04-15T05:37:04;100474.09;;;9.95;85.86
17764;BME280;22245;52.832;13.816;2023-04-15T05:40:29;100471.28;;;9.97;85.87
17764;BME280;22245;52.832;13.816;2023-04-15T05:43:50;100474.66;;;9.99;85.79
17764;BME280;22245;52.832;13.816;2023-04-15T05:47:12;100479.84;;;10.01;85.98
17764;BME280;22245;52.832;13.816;2023-04-15T05:50:34;100475.22;;;10.03;85.47
17764;BME280;22245;52.832;13.816;2023-04-15T05:53:56;100476.66;;;10.07;85.32
17764;BME280;22245;52.832;13.816;2023-04-15T05:57:19;100483.38;;;10.11;85.16
17764;BME280;22245;52.832;13.816;2023-04-15T06:00:41;100484.66;;;10.17;85.00
17764;BME280;22245;52.832;13.816;2023-04-15T06:04:02;100484.25;;;10.21;85.15
17764;BME280;22245;52.832;13.816;2023-04-15T06:07:24;100481.34;;;10.24;85.16
17764;BME280;22245;52.832;13.816;2023-04-15T06:10:46;100482.88;;;10.27;84.52
17764;BME280;22245;52.832;13.816;2023-04-15T06:14:09;100481.78;;;10.30;84.79
17764;BME280;22245;52.832;13.816;2023-04-15T06:17:31;100487.09;;;10.30;84.27
17764;BME280;22245;52.832;13.816;2023-04-15T06:20:52;100483.47;;;10.31;83.65
17764;BME280;22245;52.832;13.816;2023-04-15T06:24:14;100480.53;;;10.34;84.15
17764;BME280;22245;52.832;13.816;2023-04-15T06:27:36;100493.41;;;10.38;84.06
17764;BME280;22245;52.832;13.816;2023-04-15T06:30:59;100494.53;;;10.36;83.52
17764;BME280;22245;52.832;13.816;2023-04-15T06:34:21;100490.31;;;10.33;83.88
17764;BME280;22245;52.832;13.816;2023-04-15T06:37:43;100497.19;;;10.36;82.95
17764;BME280;22245;52.832;13.816;2023-04-15T06:41:04;100499.47;;;10.40;83.32
17764;BME280;22245;52.832;13.816;2023-04-15T06:44:26;100505.53;;;10.42;83.51
17764;BME280;22245;52.832;13.816;2023-04-15T06:47:49;100498.09;;;10.46;83.05
17764;BME280;22245;52.832;13.816;2023-04-15T06:51:11;100508.47;;;10.49;82.73
17764;BME280;22245;52.832;13.816;2023-04-15T06:54:33;100504.53;;;10.53;82.09
17764;BME280;22245;52.832;13.816;2023-04-15T06:57:54;100505.41;;;10.54;82.34
17764;BME280;22245;52.832;13.816;2023-04-15T07:01:16;100509.75;;;10.55;82.34
17764;BME280;22245;52.832;13.816;2023-04-15T07:04:40;100511.56;;;10.54;82.10
17764;BME280;22245;52.832;13.816;2023-04-15T07:08:01;100514.91;;;10.56;81.36
17764;BME280;22245;52.832;13.816;2023-04-15T07:11:24;100519.97;;;10.60;81.00
17764;BME280;22245;52.832;13.816;2023-04-15T07:14:46;100524.75;;;10.56;81.14
17764;BME280;22245;52.832;13.816;2023-04-15T07:18:08;100525.06;;;10.63;81.16
17764;BME280;22245;52.832;13.816;2023-04-15T07:21:31;100517.75;;;10.65;80.85
17764;BME280;22245;52.832;13.816;2023-04-15T07:24:53;100519.44;;;10.66;81.02
17764;BME280;22245;52.832;13.816;2023-04-15T07:28:15;100526.47;;;10.67;80.97
17764;BME280;22245;52.832;13.816;2023-04-15T07:31:36;100530.66;;;10.69;81.33
17764;BME280;22245;52.832;13.816;2023-04-15T07:34:58;100520.56;;;10.73;80.84
17764;BME280;22245;52.832;13.816;2023-04-15T07:38:22;100530.69;;;10.79;81.06
17764;BME280;22245;52.832;13.816;2023-04-15T07:41:44;100531.25;;;10.83;80.20
17764;BME280;22245;52.832;13.816;2023-04-15T07:45:06;100532.50;;;10.89;80.23
17764;BME280;22245;52.832;13.816;2023-04-15T07:48:28;100530.25;;;10.94;80.67
17764;BME280;22245;52.832;13.816;2023-04-15T07:51:50;100535.19;;;10.98;80.35
17764;BME280;22245;52.832;13.816;2023-04-15T07:55:14;100540.63;;;10.97;79.65
17764;BME280;22245;52.832;13.816;2023-04-15T07:58:38;100545.97;;;10.97;79.40
17764;BME280;22245;52.832;13.816;2023-04-15T08:02:00;100539.53;;;10.99;79.01
17764;BME280;22245;52.832;13.816;2023-04-15T08:05:22;100543.59;;;10.94;79.38
17764;BME280;22245;52.832;13.816;2023-04-15T08:08:45;100546.94;;;10.96;78.69
17764;BME280;22245;52.832;13.816;2023-04-15T08:12:08;100554.81;;;10.97;78.79
17764;BME280;22245;52.832;13.816;2023-04-15T08:15:32;100556.38;;;11.00;79.33
17764;BME280;22245;52.832;13.816;2023-04-15T08:18:55;100551.75;;;11.02;79.47
17764;BME280;22245;52.832;13.816;2023-04-15T08:22:17;100548.22;;;11.02;78.03
17764;BME280;22245;52.832;13.816;2023-04-15T08:25:41;100549.22;;;11.00;78.72
17764;BME280;22245;52.832;13.816;2023-04-15T08:29:05;100551.75;;;11.02;78.95
17764;BME280;22245;52.832;13.816;2023-04-15T08:32:27;100556.09;;;11.03;79.25
17764;BME280;22245;52.832;13.816;2023-04-15T08:35:49;100556.81;;;11.05;78.64
17764;BME280;22245;52.832;13.816;2023-04-15T08:39:10;100560.16;;;11.07;79.27
17764;BME280;22245;52.832;13.816;2023-04-15T08:42:38;100559.03;;;11.10;78.82
17764;BME280;22245;52.832;13.816;2023-04-15T08:46:05;100559.59;;;11.13;77.98
17764;BME280;22245;52.832;13.816;2023-04-15T08:49:28;100563.56;;;11.19;78.17
17764;BME280;22245;52.832;13.816;2023-04-15T08:52:53;100564.38;;;11.20;78.19
17764;BME280;22245;52.832;13.816;2023-04-15T08:56:15;100565.78;;;11.24;78.33
17764;BME280;22245;52.832;13.816;2023-04-15T08:59:37;100560.44;;;11.24;78.57
17764;BME280;22245;52.832;13.816;2023-04-15T09:03:01;100569.72;;;11.29;78.20
17764;BME280;22245;52.832;13.816;2023-04-15T09:06:25;100574.78;;;11.33;78.15
17764;BME280;22245;52.832;13.816;2023-04-15T09:09:47;100577.28;;;11.34;77.85
17764;BME280;22245;52.832;13.816;2023-04-15T09:13:11;100581.78;;;11.34;77.71
17764;BME280;22245;52.832;13.816;2023-04-15T09:16:56;100587.69;;;11.37;77.52
17764;BME280;22245;52.832;13.816;2023-04-15T09:20:20;100585.03;;;11.37;78.20
17764;BME280;22245;52.832;13.816;2023-04-15T09:23:53;100587.69;;;11.37;77.41
17764;BME280;22245;52.832;13.816;2023-04-15T09:27:15;100589.63;;;11.45;78.24
17764;BME280;22245;52.832;13.816;2023-04-15T09:30:37;100593.00;;;11.47;78.08
17764;BME280;22245;52.832;13.816;2023-04-15T09:33:59;100595.53;;;11.49;77.28
17764;BME280;22245;52.832;13.816;2023-04-15T09:37:35;100590.50;;;11.46;77.06
17764;BME280;22245;52.832;13.816;2023-04-15T09:40:57;100601.84;;;11.48;77.09
17764;BME280;22245;52.832;13.816;2023-04-15T09:44:22;100606.22;;;11.49;77.50
17764;BME280;22245;52.832;13.816;2023-04-15T09:47:43;100607.03;;;11.49;77.75
17764;BME280;22245;52.832;13.816;2023-04-15T09:51:06;100602.97;;;11.55;77.18
17764;BME280;22245;52.832;13.816;2023-04-15T09:54:36;100605.06;;;11.61;77.91
17764;BME280;22245;52.832;13.816;2023-04-15T09:57:58;100614.63;;;11.64;78.13
17764;BME280;22245;52.832;13.816;2023-04-15T10:01:20;100620.78;;;11.64;77.76
17764;BME280;22245;52.832;13.816;2023-04-15T10:04:43;100624.16;;;11.66;78.78
17764;BME280;22245;52.832;13.816;2023-04-15T10:08:07;100623.06;;;11.69;79.33
17764;BME280;22245;52.832;13.816;2023-04-15T10:11:32;100624.72;;;11.70;78.59
17764;BME280;22245;52.832;13.816;2023-04-15T10:14:58;100625.56;;;11.70;79.18
17764;BME280;22245;52.832;13.816;2023-04-15T10:18:20;100630.59;;;11.73;79.95
17764;BME280;22245;52.832;13.816;2023-04-15T10:21:44;100627.81;;;11.75;79.83
17764;BME280;22245;52.832;13.816;2023-04-15T10:25:06;100635.25;;;11.81;79.89
17764;BME280;22245;52.832;13.816;2023-04-15T10:28:30;100626.13;;;11.84;80.08
17764;BME280;22245;52.832;13.816;2023-04-15T10:31:53;100632.00;;;11.87;79.90
17764;BME280;22245;52.832;13.816;2023-04-15T10:35:16;100630.47;;;11.85;79.99
17764;BME280;22245;52.832;13.816;2023-04-15T10:38:39;100632.16;;;11.86;80.75
17764;BME280;22245;52.832;13.816;2023-04-15T10:42:06;100635.25;;;11.91;81.99
17764;BME280;22245;52.832;13.816;2023-04-15T10:45:33;100638.19;;;11.98;81.84
17764;BME280;22245;52.832;13.816;2023-04-15T10:48:56;100640.69;;;11.99;81.10
17764;BME280;22245;52.832;13.816;2023-04-15T10:52:25;100637.06;;;12.00;81.56
17764;BME280;22245;52.832;13.816;2023-04-15T10:55:47;100641.31;;;12.03;80.68
17764;BME280;22245;52.832;13.816;2023-04-15T10:59:10;100637.06;;;12.00;81.05
17764;BME280;22245;52.832;13.816;2023-04-15T11:02:44;100645.09;;;12.00;81.45
17764;BME280;22245;52.832;13.816;2023-04-15T11:06:07;100640.88;;;11.98;80.91
17764;BME280;22245;52.832;13.816;2023-04-15T11:09:30;100649.69;;;11.98;81.22
17764;BME280;22245;52.832;13.816;2023-04-15T11:12:56;100648.00;;;11.97;81.47
17764;BME280;22245;52.832;13.816;2023-04-15T11:16:18;100653.09;;;12.00;81.69
17764;BME280;22245;52.832;13.816;2023-04-15T11:19:42;100648.88;;;11.98;82.08
17764;BME280;22245;52.832;13.816;2023-04-15T11:23:04;100661.34;;;11.97;81.62
17764;BME280;22245;52.832;13.816;2023-04-15T11:26:34;100675.56;;;11.98;81.91
17764;BME280;22245;52.832;13.816;2023-04-15T11:29:56;100673.03;;;11.96;82.26
17764;BME280;22245;52.832;13.816;2023-04-15T11:33:18;100677.53;;;11.96;81.92
17764;BME280;22245;52.832;13.816;2023-04-15T11:36:42;100678.34;;;11.96;82.38
17764;BME280;22245;52.832;13.816;2023-04-15T11:40:05;100678.50;;;11.95;82.72
17764;BME280;22245;52.832;13.816;2023-04-15T11:43:30;100684.25;;;11.90;81.55
17764;BME280;22245;52.832;13.816;2023-04-15T11:46:54;100695.50;;;11.84;82.76
17764;BME280;22245;52.832;13.816;2023-04-15T11:50:17;100687.50;;;11.84;83.38
17764;BME280;22245;52.832;13.816;2023-04-15T11:53:43;100694.66;;;11.83;82.99
17764;BME280;22245;52.832;13.816;2023-04-15T11:57:06;100693.66;;;11.84;83.66
17764;BME280;22245;52.832;13.816;2023-04-15T12:00:27;100702.38;;;11.86;83.42
17764;BME280;22245;52.832;13.816;2023-04-15T12:03:49;100702.25;;;11.88;83.44
17764;BME280;22245;52.832;13.816;2023-04-15T12:07:11;100704.22;;;11.86;83.29
17764;BME280;22245;52.832;13.816;2023-04-15T12:10:34;100708.00;;;11.83;83.39
17764;BME280;22245;52.832;13.816;2023-04-15T12:13:58;100708.84;;;11.84;83.55
17764;BME280;22245;52.832;13.816;2023-04-15T12:17:22;100711.53;;;11.84;83.96
17764;BME280;22245;52.832;13.816;2023-04-15T12:20:43;100701.97;;;11.81;84.28
17764;BME280;22245;52.832;13.816;2023-04-15T12:24:08;100704.78;;;11.80;84.25
17764;BME280;22245;52.832;13.816;2023-04-15T12:27:32;100705.19;;;11.75;85.39
17764;BME280;22245;52.832;13.816;2023-04-15T12:30:55;100715.72;;;11.77;85.86
17764;BME280;22245;52.832;13.816;2023-04-15T12:34:17;100717.13;;;11.81;86.11
17764;BME280;22245;52.832;13.816;2023-04-15T12:37:39;100722.47;;;11.81;85.85
17764;BME280;22245;52.832;13.816;2023-04-15T12:41:01;100717.84;;;11.83;86.28
17764;BME280;22245;52.832;13.816;2023-04-15T12:44:25;100732.16;;;11.82;85.62
17764;BME280;22245;52.832;13.816;2023-04-15T12:47:47;100736.09;;;11.78;85.72
17764;BME280;22245;52.832;13.816;2023-04-15T12:51:08;100741.28;;;11.79;86.78
17764;BME280;22245;52.832;13.816;2023-04-15T12:54:30;100745.34;;;11.83;86.18
17764;BME280;22245;52.832;13.816;2023-04-15T12:57:53;100745.94;;;11.87;86.00
17764;BME280;22245;52.832;13.816;2023-04-15T13:01:15;100745.06;;;11.86;85.86
17764;BME280;22245;52.832;13.816;2023-04-15T13:04:37;100750.84;;;11.82;86.12
17764;BME280;22245;52.832;13.816;2023-04-15T13:07:59;100753.50;;;11.82;86.33
17764;BME280;22245;52.832;13.816;2023-04-15T13:11:21;100758.41;;;11.86;86.61
17764;BME280;22245;52.832;13.816;2023-04-15T13:14:43;100753.94;;;11.87;85.90
17764;BME280;22245;52.832;13.816;2023-04-15T13:18:07;100763.91;;;11.85;86.01
17764;BME280;22245;52.832;13.816;2023-04-15T13:21:29;100769.09;;;11.86;86.25
17764;BME280;22245;52.832;13.816;2023-04-15T13:24:54;100774.56;;;11.85;86.03
17764;BME280;22245;52.832;13.816;2023-04-15T13:28:17;100766.84;;;11.82;85.66
17764;BME280;22245;52.832;13.816;2023-04-15T13:31:38;100765.16;;;11.81;86.25
17764;BME280;22245;52.832;13.816;2023-04-15T13:35:02;100767.97;;;11.79;85.98
17764;BME280;22245;52.832;13.816;2023-04-15T13:38:24;100782.44;;;11.77;85.76
17764;BME280;22245;52.832;13.816;2023-04-15T13:41:45;100780.31;;;11.80;86.25
17764;BME280;22245;52.832;13.816;2023-04-15T13:45:09;100782.28;;;11.78;86.28
17764;BME280;22245;52.832;13.816;2023-04-15T13:48:31;100788.19;;;11.82;86.07
17764;BME280;22245;52.832;13.816;2023-04-15T13:51:53;100783.41;;;11.76;86.75
17764;BME280;22245;52.832;13.816;2023-04-15T13:55:16;100795.78;;;11.77;86.89
17764;BME280;22245;52.832;13.816;2023-04-15T13:58:41;100794.22;;;11.74;87.47
17764;BME280;22245;52.832;13.816;2023-04-15T14:02:02;100799.97;;;11.79;87.31
17764;BME280;22245;52.832;13.816;2023-04-15T14:05:24;100804.22;;;11.82;87.81
17764;BME280;22245;52.832;13.816;2023-04-15T14:08:48;100798.00;;;11.81;87.61
17764;BME280;22245;52.832;13.816;2023-04-15T14:12:10;100803.63;;;11.78;87.63
17764;BME280;22245;52.832;13.816;2023-04-15T14:15:31;100812.50;;;11.79;87.59
17764;BME280;22245;52.832;13.816;2023-04-15T14:18:53;100812.50;;;11.79;87.74
17764;BME280;22245;52.832;13.816;2023-04-15T14:22:15;100818.81;;;11.78;88.04
17764;BME280;22245;52.832;13.816;2023-04-15T14:25:39;100817.81;;;11.79;87.99
17764;BME280;22245;52.832;13.816;2023-04-15T14:29:01;100824.97;;;11.78;87.87
17764;BME280;22245;52.832;13.816;2023-04-15T14:32:24;100825.13;;;11.77;87.31
17764;BME280;22245;52.832;13.816;2023-04-15T14:35:46;100828.78;;;11.76;87.69
17764;BME280;22245;52.832;13.816;2023-04-15T14:39:07;100837.63;;;11.76;88.09
17764;BME280;22245;52.832;13.816;2023-04-15T14:42:31;100838.47;;;11.77;88.18
17764;BME280;22245;52.832;13.816;2023-04-15T14:45:52;100840.44;;;11.75;88.03
17764;BME280;22245;52.832;13.816;2023-04-15T14:49:14;100847.00;;;11.70;87.84
17764;BME280;22245;52.832;13.816;2023-04-15T14:52:36;100856.41;;;11.65;89.03
17764;BME280;22245;52.832;13.816;2023-04-15T14:55:59;100861.75;;;11.65;89.47
17764;BME280;22245;52.832;13.816;2023-04-15T14:59:22;100862.84;;;11.62;89.39
17764;BME280;22245;52.832;13.816;2023-04-15T15:02:44;100868.19;;;11.62;88.81
17764;BME280;22245;52.832;13.816;2023-04-15T15:06:06;100863.97;;;11.60;88.99
17764;BME280;22245;52.832;13.816;2023-04-15T15:09:28;100867.63;;;11.58;89.30
17764;BME280;22245;52.832;13.816;2023-04-15T15:12:51;100868.44;;;11.59;90.17
17764;BME280;22245;52.832;13.816;2023-04-15T15:16:14;100870.84;;;11.62;89.19
17764;BME280;22245;52.832;13.816;2023-04-15T15:19:36;100869.88;;;11.63;89.38
17764;BME280;22245;52.832;13.816;2023-04-15T15:22:59;100869.88;;;11.63;89.78
17764;BME280;22245;52.832;13.816;2023-04-15T15:26:21;100878.56;;;11.65;89.27
17764;BME280;22245;52.832;13.816;2023-04-15T15:29:43;100891.09;;;11.65;89.88
17764;BME280;22245;52.832;13.816;2023-04-15T15:33:07;100882.22;;;11.64;89.17
17764;BME280;22245;52.832;13.816;2023-04-15T15:36:28;100888.41;;;11.65;89.37
17764;BME280;22245;52.832;13.816;2023-04-15T15:39:51;100894.84;;;11.62;89.61
17764;BME280;22245;52.832;13.816;2023-04-15T15:43:13;100893.44;;;11.58;89.15
17764;BME280;22245;52.832;13.816;2023-04-15T15:46:35;100891.75;;;11.57;89.66
17764;BME280;22245;52.832;13.816;2023-04-15T15:50:01;100900.72;;;11.56;89.40
17764;BME280;22245;52.832;13.816;2023-04-15T15:53:25;100889.78;;;11.59;89.82
17764;BME280;22245;52.832;13.816;2023-04-15T15:56:47;100896.81;;;11.60;89.57
17764;BME280;22245;52.832;13.816;2023-04-15T16:00:11;100906.50;;;11.61;89.08
17764;BME280;22245;52.832;13.816;2023-04-15T16:03:32;100902.16;;;11.60;89.81
17764;BME280;22245;52.832;13.816;2023-04-15T16:06:56;100904.81;;;11.60;89.18
17764;BME280;22245;52.832;13.816;2023-04-15T16:10:18;100906.38;;;11.63;88.73
17764;BME280;22245;52.832;13.816;2023-04-15T16:13:40;100911.13;;;11.59;88.67
17764;BME280;22245;52.832;13.816;2023-04-15T16:17:02;100908.47;;;11.59;89.25
17764;BME280;22245;52.832;13.816;2023-04-15T16:20:23;100912.09;;;11.58;88.52
17764;BME280;22245;52.832;13.816;2023-04-15T16:23:47;100915.75;;;11.57;88.71
17764;BME280;22245;52.832;13.816;2023-04-15T16:27:08;100922.78;;;11.58;89.16
17764;BME280;22245;52.832;13.816;2023-04-15T16:30:36;100924.72;;;11.56;89.44
17764;BME280;22245;52.832;13.816;2023-04-15T16:33:58;100925.00;;;11.53;90.01
17764;BME280;22245;52.832;13.816;2023-04-15T16:37:20;100930.34;;;11.53;90.27
17764;BME280;22245;52.832;13.816;2023-04-15T16:40:43;100933.84;;;11.53;90.34
17764;BME280;22245;52.832;13.816;2023-04-15T16:44:05;100938.34;;;11.53;89.75
17764;BME280;22245;52.832;13.816;2023-04-15T16:47:28;100943.66;;;11.53;89.59
17764;BME280;22245;52.832;13.816;2023-04-15T16:50:50;100943.66;;;11.53;89.93
17764;BME280;22245;52.832;13.816;2023-04-15T16:54:12;100941.84;;;11.53;89.72
17764;BME280;22245;52.832;13.816;2023-04-15T16:57:35;100945.47;;;11.52;89.63
17764;BME280;22245;52.832;13.816;2023-04-15T17:01:17;100952.78;;;11.50;89.71
17764;BME280;22245;52.832;13.816;2023-04-15T17:04:39;100955.69;;;11.47;89.49
17764;BME280;22245;52.832;13.816;2023-04-15T17:08:01;100955.97;;;11.44;89.51
17764;BME280;22245;52.832;13.816;2023-04-15T17:11:23;100959.06;;;11.39;89.46
17764;BME280;22245;52.832;13.816;2023-04-15T17:14:46;100973.38;;;11.38;89.85
17764;BME280;22245;52.832;13.816;2023-04-15T17:18:08;100978.69;;;11.38;90.22
17764;BME280;22245;52.832;13.816;2023-04-15T17:21:31;100975.28;;;11.36;90.49
17764;BME280;22245;52.832;13.816;2023-04-15T17:24:52;100983.28;;;11.36;90.38
17764;BME280;22245;52.832;13.816;2023-04-15T17:28:14;100990.44;;;11.36;90.38
17764;BME280;22245;52.832;13.816;2023-04-15T17:31:38;100992.25;;;11.35;90.53